Time;durP1;ratioP1;P1;durP2;ratioP2;P2;SDS_P1;SDS_P2;PMS_P1;PMS_P2;Temp;Humidity;BMP_temperature;BMP_pressure;BME280_temperature;BME280_humidity;BME280_pressure;Samples;Min_cycle;Max_cycle;Signal;HPM_P1;HPM_P2
2022/10/24 00:01:46;;;;;;;8.43;3.70;;;;;;;13.65;100.00;100215.63;5008216;29;20544;-76
2022/10/24 00:04:18;;;;;;;9.70;2.77;;;;;;;13.69;100.00;100222.47;5008706;29;20038;-77
2022/10/24 00:06:49;;;;;;;10.87;3.30;;;;;;;13.72;100.00;100222.38;5008259;29;20514;-76
2022/10/24 00:09:20;;;;;;;10.57;3.07;;;;;;;13.77;100.00;100215.19;5008619;29;20498;-76
2022/10/24 00:11:52;;;;;;;8.67;3.97;;;;;;;13.73;100.00;100208.34;5009293;29;20406;-76
2022/10/24 00:14:23;;;;;;;10.50;3.43;;;;;;;13.73;100.00;100208.34;5008619;29;20504;-76
2022/10/24 00:16:55;;;;;;;13.20;3.00;;;;;;;13.80;100.00;100203.78;5008310;29;20441;-76
2022/10/24 00:19:26;;;;;;;11.93;3.00;;;;;;;13.89;100.00;100205.19;5008638;29;20039;-76
2022/10/24 00:21:58;;;;;;;12.10;2.93;;;;;;;13.89;100.00;100203.41;5009047;29;20035;-76
2022/10/24 00:24:29;;;;;;;13.03;3.33;;;;;;;13.90;100.00;100212.16;5012066;29;20543;-74
2022/10/24 00:27:01;;;;;;;8.87;2.90;;;;;;;13.85;100.00;100207.91;5017622;29;20035;-76
2022/10/24 00:29:32;;;;;;;8.70;2.83;;;;;;;13.82;100.00;100201.94;5020466;29;20042;-76
2022/10/24 00:32:03;;;;;;;7.50;2.73;;;;;;;13.84;100.00;100200.97;5021056;29;20027;-77
2022/10/24 00:34:36;;;;;;;14.47;2.50;;;;;;;13.91;100.00;100213.84;5018822;29;20062;-76
2022/10/24 00:37:08;;;;;;;9.00;2.80;;;;;;;13.92;100.00;100205.09;5020292;29;20046;-76
2022/10/24 00:39:39;;;;;;;7.70;2.53;;;;;;;13.89;100.00;100203.41;5020122;29;20038;-75
2022/10/24 00:42:11;;;;;;;7.37;2.83;;;;;;;13.91;100.00;100209.47;5020418;29;20022;-76
2022/10/24 00:44:45;;;;;;;8.60;2.80;;;;;;;14.03;100.00;100202.94;5020033;29;20048;-75
2022/10/24 00:47:20;;;;;;;10.93;4.15;;;;;;;13.97;100.00;100192.66;5020750;29;20484;-75
2022/10/24 00:50:01;;;;;;;7.57;2.78;;;;;;;13.89;100.00;100190.31;5020462;29;20042;-75
2022/10/24 00:52:36;;;;;;;10.70;3.30;;;;;;;13.81;100.00;100193.25;5020296;29;20043;-76
2022/10/24 00:55:09;;;;;;;8.55;2.67;;;;;;;13.78;100.00;100193.34;5014475;29;20035;-77
2022/10/24 00:57:52;;;;;;;6.63;2.08;;;;;;;13.77;100.00;100188.16;5010731;29;20122;-76
2022/10/24 01:00:26;;;;;;;8.35;3.40;;;;;;;13.79;100.00;100181.94;5009460;29;20413;-75
2022/10/24 01:02:59;;;;;;;13.27;4.00;;;;;;;13.78;100.00;100193.34;5008215;29;20118;-76
2022/10/24 01:05:34;;;;;;;;;;;;;;;13.60;100.00;100192.19;5008033;29;20100;-76
2022/10/24 01:08:37;;;;;;;9.57;3.38;;;;;;;13.74;100.00;100194.34;5007314;29;19913;-75
2022/10/24 01:11:23;;;;;;;10.60;3.20;;;;;;;13.69;100.00;100185.81;5006985;29;20062;-76
2022/10/24 01:14:10;;;;;;;10.07;3.05;;;;;;;13.69;100.00;100191.03;5006682;29;20498;-76
2022/10/24 01:16:46;;;;;;;9.40;2.90;;;;;;;13.81;100.00;100184.50;5006554;29;20031;-76
2022/10/24 01:19:42;;;;;;;9.77;3.15;;;;;;;13.85;100.00;100192.19;5007097;29;20041;-76
2022/10/24 01:22:22;;;;;;;11.40;2.75;;;;;;;13.95;98.99;100181.41;5006764;29;20390;-76
2022/10/24 01:25:23;;;;;;;8.20;2.90;;;;;;;13.84;99.59;100180.00;5005939;29;20027;-75
2022/10/24 01:28:12;;;;;;;10.20;3.88;;;;;;;13.99;97.59;100172.50;5006651;29;20054;-75
2022/10/24 01:30:50;;;;;;;7.68;3.17;;;;;;;14.08;97.11;100169.53;5006197;29;20038;-76
2022/10/24 01:33:34;;;;;;;10.88;3.30;;;;;;;14.07;97.23;100175.72;5006008;29;20618;-76
2022/10/24 01:36:23;;;;;;;11.35;3.28;;;;;;;14.04;97.08;100184.53;5006435;29;20035;-75
2022/10/24 01:38:58;;;;;;;10.00;3.10;;;;;;;14.18;94.86;100180.53;5006634;29;20031;-74
2022/10/24 01:41:32;;;;;;;5.80;2.72;;;;;;;14.18;94.98;100164.81;5006675;29;20031;-75
2022/10/24 01:44:28;;;;;;;9.27;2.53;;;;;;;14.17;94.70;100163.13;5006555;29;20027;-74
2022/10/24 01:47:06;;;;;;;8.65;2.53;;;;;;;14.30;92.96;100169.59;5006087;29;20054;-75
2022/10/24 01:49:40;;;;;;;6.57;2.53;;;;;;;14.17;93.94;100166.59;5006251;29;20468;-74
2022/10/24 01:52:14;;;;;;;9.82;3.15;;;;;;;14.22;93.30;100156.78;5005905;29;20444;-75
2022/10/24 01:54:47;;;;;;;10.85;2.80;;;;;;;14.16;93.51;100157.00;5005779;29;20175;-75
2022/10/24 01:57:19;;;;;;;11.98;2.88;;;;;;;14.17;93.49;100156.09;5005429;29;20087;-75
2022/10/24 01:59:50;;;;;;;6.67;2.40;;;;;;;14.13;93.62;100159.75;5005786;29;20042;-75
2022/10/24 02:02:33;;;;;;;8.30;2.43;;;;;;;14.07;93.58;100144.28;5005553;29;20483;-75
2022/10/24 02:05:20;;;;;;;11.50;2.50;;;;;;;14.24;91.55;100156.72;5005954;29;20459;-74
2022/10/24 02:07:59;;;;;;;10.35;2.40;;;;;;;14.22;91.69;100155.94;5005447;29;20479;-75
2022/10/24 02:10:37;;;;;;;13.30;2.85;;;;;;;14.25;91.25;100157.56;5005520;29;20110;-75
2022/10/24 02:13:16;;;;;;;7.75;2.28;;;;;;;14.28;90.13;100160.06;5005453;29;20034;-75
2022/10/24 02:15:52;;;;;;;8.32;2.67;;;;;;;14.31;89.90;100158.22;5005606;29;20043;-75
2022/10/24 02:18:23;;;;;;;11.82;2.50;;;;;;;14.41;88.94;100156.09;5005606;29;20129;-75
2022/10/24 02:21:09;;;;;;;6.97;2.33;;;;;;;14.38;89.68;100159.66;5005217;29;20138;-76
2022/10/24 02:24:13;;;;;;;5.22;2.10;;;;;;;14.44;88.68;100153.34;5005152;29;20112;-76
2022/10/24 02:26:48;;;;;;;;;;;;;;;14.22;94.00;100154.16;5005432;29;20475;-74
2022/10/24 02:29:38;;;;;;;11.18;2.28;;;;;;;14.28;89.61;100155.72;5005267;29;19931;-75
2022/10/24 02:32:15;;;;;;;10.00;3.22;;;;;;;14.19;89.88;100154.28;5005198;29;20079;-73
2022/10/24 02:34:48;;;;;;;8.60;2.30;;;;;;;14.17;90.11;100150.00;5005543;29;20041;-74
2022/10/24 02:37:19;;;;;;;;;;;;;;;14.12;92.84;100152.81;5005264;29;20039;-75
2022/10/24 02:39:52;;;;;;;7.78;2.38;;;;;;;14.23;88.65;100161.13;5005124;29;19933;-74
2022/10/24 02:42:27;;;;;;;9.18;2.10;;;;;;;14.47;86.45;100160.22;5004802;29;20043;-76
2022/10/24 02:44:59;;;;;;;8.25;2.08;;;;;;;14.47;86.39;100162.84;5004365;29;20074;-75
2022/10/24 02:47:31;;;;;;;8.70;2.35;;;;;;;14.63;84.89;100155.25;5004748;29;20508;-75
2022/10/24 02:50:03;;;;;;;5.13;1.77;;;;;;;14.71;83.93;100169.78;5004880;29;20364;-75
2022/10/24 02:52:37;;;;;;;8.32;2.35;;;;;;;14.82;82.84;100160.63;5005137;29;20049;-74
2022/10/24 02:55:10;;;;;;;10.30;2.55;;;;;;;14.79;83.18;100166.00;5004960;29;20050;-76
2022/10/24 02:57:42;;;;;;;10.75;2.50;;;;;;;14.87;82.40;100169.16;5005057;29;20039;-75
2022/10/24 03:00:13;;;;;;;7.77;2.13;;;;;;;14.88;82.27;100163.88;5005899;29;20041;-76
2022/10/24 03:02:45;;;;;;;8.88;2.33;;;;;;;14.81;82.97;100170.28;5009309;29;20042;-76
2022/10/24 03:05:16;;;;;;;9.73;2.10;;;;;;;14.74;83.60;100167.03;5015851;29;20066;-76
2022/10/24 03:07:48;;;;;;;5.97;1.83;;;;;;;14.71;84.07;100167.16;5017630;29;20113;-75
2022/10/24 03:10:19;;;;;;;5.10;1.63;;;;;;;14.66;83.87;100173.50;5019505;29;20154;-75
2022/10/24 03:12:51;;;;;;;8.57;3.03;;;;;;;14.55;84.24;100171.28;5016126;29;20045;-75
2022/10/24 03:15:23;;;;;;;5.83;1.83;;;;;;;14.54;84.12;100172.19;5007402;29;20133;-76
2022/10/24 03:17:54;;;;;;;8.93;2.35;;;;;;;14.54;84.72;100161.72;5004119;29;20476;-75
2022/10/24 03:20:25;;;;;;;5.03;2.10;;;;;;;14.63;83.81;100165.75;5003609;29;20042;-76
2022/10/24 03:22:57;;;;;;;6.97;2.40;;;;;;;14.67;83.29;100167.34;5004890;29;20043;-75
2022/10/24 03:25:28;;;;;;;6.17;2.73;;;;;;;14.56;84.15;100162.50;5004664;29;20464;-75
2022/10/24 03:28:00;;;;;;;4.33;2.00;;;;;;;14.43;85.79;100162.13;5005296;29;20114;-75
2022/10/24 03:30:31;;;;;;;5.70;2.00;;;;;;;14.36;85.97;100160.63;5003300;29;20046;-75
2022/10/24 03:33:03;;;;;;;10.17;2.43;;;;;;;14.40;85.23;100177.97;5004880;29;20038;-75
2022/10/24 03:35:35;;;;;;;6.53;2.00;;;;;;;14.50;84.40;100158.31;5004924;29;20068;-75
2022/10/24 03:38:07;;;;;;;8.07;3.20;;;;;;;14.62;83.70;100157.03;5004356;29;20066;-75
2022/10/24 03:40:38;;;;;;;6.13;2.47;;;;;;;14.52;85.25;100148.66;5004507;29;20065;-75
2022/10/24 03:43:09;;;;;;;7.33;2.50;;;;;;;14.60;84.32;100150.97;5004842;29;20476;-75
2022/10/24 03:45:41;;;;;;;8.30;1.97;;;;;;;14.63;83.81;100147.41;5004495;29;20039;-75
2022/10/24 03:48:12;;;;;;;8.40;2.70;;;;;;;14.67;83.87;100154.25;5004025;29;20184;-75
2022/10/24 03:50:44;;;;;;;11.67;3.03;;;;;;;14.73;83.09;100138.22;5004119;29;20436;-74
2022/10/24 03:53:15;;;;;;;10.00;2.33;;;;;;;14.76;82.33;100143.34;5004736;29;20035;-75
2022/10/24 03:55:46;;;;;;;10.93;3.10;;;;;;;14.58;84.38;100132.66;5006879;29;20035;-74
2022/10/24 03:58:18;;;;;;;8.50;2.40;;;;;;;14.57;84.07;100151.06;5007995;29;20074;-74
2022/10/24 04:00:49;;;;;;;12.43;2.50;;;;;;;14.60;83.33;100145.72;5007660;29;20080;-74
2022/10/24 04:03:21;;;;;;;7.00;2.23;;;;;;;14.57;84.07;100146.69;5007821;29;20038;-75
2022/10/24 04:05:52;;;;;;;6.73;2.33;;;;;;;14.57;84.20;100154.56;5007911;29;20070;-74
2022/10/24 04:08:24;;;;;;;8.40;2.90;;;;;;;14.67;83.13;100155.09;5007763;29;20077;-75
2022/10/24 04:10:55;;;;;;;11.17;4.17;;;;;;;14.66;83.57;100158.63;5007777;29;20117;-74
2022/10/24 04:13:26;;;;;;;4.23;1.73;;;;;;;14.79;82.98;100151.09;5007762;29;20068;-75
2022/10/24 04:15:58;;;;;;;6.67;2.30;;;;;;;14.70;83.78;100151.47;5007320;29;20043;-75
2022/10/24 04:18:29;;;;;;;9.20;2.77;;;;;;;14.67;83.31;100141.13;5007443;29;20118;-74
2022/10/24 04:21:01;;;;;;;8.60;2.63;;;;;;;14.73;83.07;100153.97;5007187;29;20054;-74
2022/10/24 04:23:37;;;;;;;9.40;2.30;;;;;;;14.70;82.89;100144.47;5006840;29;20531;-74
2022/10/24 04:26:14;;;;;;;7.60;2.53;;;;;;;14.74;82.61;100137.31;5007443;29;20079;-75
2022/10/24 04:28:45;;;;;;;5.50;2.20;;;;;;;14.78;82.05;100146.78;5006799;29;20045;-74
2022/10/24 04:31:17;;;;;;;9.33;2.40;;;;;;;14.85;81.04;100142.16;5007103;29;20372;-74
2022/10/24 04:33:48;;;;;;;6.70;2.80;;;;;;;14.84;80.89;100143.91;5006634;29;20168;-76
2022/10/24 04:36:20;;;;;;;7.13;2.63;;;;;;;14.82;81.04;100143.13;5005921;29;20138;-76
2022/10/24 04:38:51;;;;;;;7.40;1.80;;;;;;;14.80;80.94;100152.81;5008648;29;20031;-75
2022/10/24 04:41:22;;;;;;;6.60;2.50;;;;;;;14.62;82.48;100146.56;5005824;29;20038;-76
2022/10/24 04:43:54;;;;;;;4.63;1.93;;;;;;;14.65;81.89;100154.31;5006852;29;20388;-75
2022/10/24 04:46:25;;;;;;;9.20;2.03;;;;;;;14.73;81.85;100148.72;5008547;29;20381;-75
2022/10/24 04:48:57;;;;;;;8.47;2.10;;;;;;;14.79;nan;100145.84;5008548;29;20118;-74
2022/10/24 04:51:29;;;;;;;6.67;2.10;;;;;;;14.90;80.79;100150.69;5007659;29;20582;-74
2022/10/24 04:54:01;;;;;;;5.63;1.92;;;;;;;14.93;80.71;100150.56;5007090;29;20035;-74
2022/10/24 04:56:33;;;;;;;7.20;3.10;;;;;;;14.88;81.95;100142.88;5007907;29;20539;-74
2022/10/24 04:59:04;;;;;;;7.77;2.50;;;;;;;14.91;81.59;100147.16;5006684;29;20039;-74
2022/10/24 05:01:35;;;;;;;12.37;2.80;;;;;;;14.95;81.54;100153.97;5007226;29;20043;-74
2022/10/24 05:04:07;;;;;;;9.40;3.13;;;;;;;14.97;81.51;100156.53;5008188;29;20064;-75
2022/10/24 05:06:39;;;;;;;10.63;2.63;;;;;;;15.06;80.69;100150.91;5006871;29;20047;-74
2022/10/24 05:09:10;;;;;;;7.23;2.37;;;;;;;15.00;81.19;100152.00;5007078;29;20115;-75
2022/10/24 05:11:41;;;;;;;7.33;2.40;;;;;;;14.91;81.60;100140.13;5005541;29;20528;-74
2022/10/24 05:14:13;;;;;;;8.50;2.37;;;;;;;14.90;81.41;100150.69;5005666;29;20038;-73
2022/10/24 05:16:47;;;;;;;8.97;2.80;;;;;;;14.90;81.86;100154.16;5006216;29;20031;-73
2022/10/24 05:19:18;;;;;;;8.95;2.55;;;;;;;14.91;81.85;100157.66;5006241;29;20441;-73
2022/10/24 05:21:50;;;;;;;12.80;3.50;;;;;;;14.99;81.76;100158.19;5006286;29;20095;-74
2022/10/24 05:24:21;;;;;;;7.30;3.07;;;;;;;14.88;82.37;100169.09;5006397;29;20495;-75
2022/10/24 05:26:52;;;;;;;11.43;2.63;;;;;;;15.07;81.04;100163.97;5005925;29;20050;-74
2022/10/24 05:29:24;;;;;;;5.77;2.43;;;;;;;15.11;81.10;100175.19;5005076;29;20031;-74
2022/10/24 05:31:55;;;;;;;10.20;3.07;;;;;;;15.15;80.70;100176.78;5006149;29;20035;-74
2022/10/24 05:34:27;;;;;;;13.10;2.73;;;;;;;15.18;80.87;100178.41;5006352;29;20172;-73
2022/10/24 05:36:58;;;;;;;10.50;2.77;;;;;;;15.19;80.59;100177.50;5006500;29;20042;-73
2022/10/24 05:39:29;;;;;;;12.50;2.87;;;;;;;15.19;80.64;100188.84;5006549;29;20496;-73
2022/10/24 05:42:01;;;;;;;12.43;3.10;;;;;;;15.17;80.63;100179.34;5005004;29;20495;-74
2022/10/24 05:44:32;;;;;;;11.77;2.27;;;;;;;15.22;80.14;100178.22;5005211;29;20042;-73
2022/10/24 05:47:04;;;;;;;9.53;2.57;;;;;;;15.26;80.04;100181.56;5006690;29;20098;-73
2022/10/24 05:49:36;;;;;;;11.65;2.92;;;;;;;15.31;79.71;100176.97;5006204;29;20046;-74
2022/10/24 05:52:07;;;;;;;11.00;2.43;;;;;;;15.25;79.81;100180.72;5006126;29;20066;-74
2022/10/24 05:54:38;;;;;;;15.83;2.60;;;;;;;15.25;79.70;100200.88;5006479;29;20038;-73
2022/10/24 05:57:10;;;;;;;11.10;3.53;;;;;;;15.23;80.37;100168.56;5005522;29;20038;-72
2022/10/24 05:59:41;;;;;;;9.87;3.10;;;;;;;15.35;78.37;100180.34;5006406;29;20420;-71
2022/10/24 06:02:18;;;;;;;10.83;3.07;;;;;;;15.33;78.46;100172.53;5006541;29;20034;-71
2022/10/24 06:04:49;;;;;;;9.95;2.70;;;;;;;15.26;79.15;100185.06;5006039;29;20062;-71
2022/10/24 06:07:21;;;;;;;13.10;3.60;;;;;;;15.19;79.65;100183.59;5005793;29;20074;-71
2022/10/24 06:09:53;;;;;;;8.67;2.80;;;;;;;15.19;79.27;100185.38;5006021;29;20096;-72
2022/10/24 06:12:24;;;;;;;11.47;2.87;;;;;;;15.07;80.13;100177.09;5005427;29;20783;-71
2022/10/24 06:14:57;;;;;;;12.00;3.50;;;;;;;15.03;80.66;100193.88;5006113;29;20428;-70
2022/10/24 06:17:28;;;;;;;9.40;2.78;;;;;;;15.01;80.97;100187.84;5005588;29;20217;-70
2022/10/24 06:20:00;;;;;;;10.17;3.57;;;;;;;14.99;81.07;100187.06;5005328;29;20121;-70
2022/10/24 06:22:31;;;;;;;10.40;2.87;;;;;;;14.99;80.47;100187.06;5006079;29;20039;-70
2022/10/24 06:25:03;;;;;;;9.80;3.40;;;;;;;14.93;80.96;100198.63;5004698;29;20031;-70
2022/10/24 06:27:34;;;;;;;14.15;2.92;;;;;;;14.91;81.32;100197.00;5006023;29;20417;-71
2022/10/24 06:30:07;;;;;;;10.63;3.47;;;;;;;14.81;81.86;100200.91;5005755;29;20066;-71
2022/10/24 06:32:38;;;;;;;13.45;3.95;;;;;;;14.77;82.47;100197.56;5005712;29;20537;-71
2022/10/24 06:35:12;;;;;;;14.20;3.10;;;;;;;14.70;82.98;100199.56;5006071;29;20037;-71
2022/10/24 06:37:43;;;;;;;12.07;2.63;;;;;;;14.70;82.95;100196.06;5006009;29;20349;-70
2022/10/24 06:40:16;;;;;;;11.80;2.57;;;;;;;14.75;82.60;100207.25;5006145;29;20049;-70
2022/10/24 06:42:48;;;;;;;8.63;2.92;;;;;;;14.75;82.63;100215.13;5004887;29;20031;-71
2022/10/24 06:45:20;;;;;;;13.97;3.97;;;;;;;14.70;83.22;100217.06;5007140;29;20340;-72
2022/10/24 06:47:52;;;;;;;12.68;3.03;;;;;;;14.65;83.59;100221.63;5008787;29;20063;-70
2022/10/24 06:50:23;;;;;;;10.50;3.30;;;;;;;14.68;83.26;100226.75;5009860;29;20064;-70
2022/10/24 06:52:54;;;;;;;8.57;2.63;;;;;;;14.72;82.94;100231.84;5008378;29;20034;-71
2022/10/24 06:55:26;;;;;;;12.73;3.67;;;;;;;14.82;82.45;100244.59;5006124;29;20121;-71
2022/10/24 06:57:57;;;;;;;13.77;3.40;;;;;;;14.96;81.55;100239.66;5004153;29;20391;-71
2022/10/24 07:00:28;;;;;;;13.13;2.67;;;;;;;15.01;82.20;100253.44;5005650;29;20046;-72
2022/10/24 07:03:00;;;;;;;9.00;2.53;;;;;;;15.07;82.86;100257.59;5004253;29;20050;-72
2022/10/24 07:05:31;;;;;;;11.13;2.93;;;;;;;14.99;83.83;100264.91;5005438;29;20031;-71
2022/10/24 07:08:03;;;;;;;17.07;3.20;;;;;;;14.86;84.81;100249.66;5006068;29;20079;-71
2022/10/24 07:10:34;;;;;;;13.40;3.30;;;;;;;14.77;85.66;100244.78;5005235;29;20046;-71
2022/10/24 07:13:06;;;;;;;9.97;2.97;;;;;;;14.68;86.52;100256.50;4989274;29;20391;-71
2022/10/24 07:15:37;;;;;;;9.83;2.70;;;;;;;14.63;86.96;100242.66;5004304;29;20038;-71
2022/10/24 07:18:13;;;;;;;13.50;3.03;;;;;;;14.52;88.35;100250.94;5005226;29;20039;-72
2022/10/24 07:20:45;;;;;;;14.07;3.15;;;;;;;14.50;88.22;100254.53;5005161;29;20039;-72
2022/10/24 07:23:17;;;;;;;11.63;2.60;;;;;;;14.52;88.44;100261.44;5005313;29;20448;-71
2022/10/24 07:25:48;;;;;;;11.73;3.20;;;;;;;14.62;88.42;100268.97;5005215;29;20070;-72
2022/10/24 07:28:19;;;;;;;9.83;3.40;;;;;;;14.79;88.41;100268.34;5005159;29;20038;-73
2022/10/24 07:30:51;;;;;;;13.13;2.67;;;;;;;14.92;86.57;100280.06;5008268;29;20058;-71
2022/10/24 07:33:22;;;;;;;14.93;3.23;;;;;;;15.04;85.16;100273.50;5008706;29;20047;-71
2022/10/24 07:35:54;;;;;;;13.43;3.30;;;;;;;15.09;85.50;100279.41;5009238;29;20091;-71
2022/10/24 07:38:25;;;;;;;10.83;2.90;;;;;;;15.12;84.66;100280.13;5011092;29;20080;-70
2022/10/24 07:40:57;;;;;;;12.27;3.50;;;;;;;15.15;83.31;100292.28;5008894;29;20106;-72
2022/10/24 07:43:28;;;;;;;13.53;3.53;;;;;;;15.26;82.99;100290.09;5008725;29;20528;-71
2022/10/24 07:46:04;;;;;;;12.70;3.00;;;;;;;15.40;82.62;100289.50;5008219;29;20039;-71
2022/10/24 07:48:37;;;;;;;11.48;2.90;;;;;;;15.42;82.37;100292.97;5009797;29;20050;-70
2022/10/24 07:51:09;;;;;;;;;;;;;;;15.47;81.83;100319.00;5009140;29;20459;-69
2022/10/24 07:53:41;;;;;;;10.57;2.70;;;;;;;15.39;82.12;100321.97;5008504;29;20335;-70
2022/10/24 07:56:14;;;;;;;8.77;2.83;;;;;;;15.44;81.75;100327.88;5008600;29;20035;-73
2022/10/24 07:58:46;;;;;;;9.25;2.20;;;;;;;15.55;81.03;100329.22;5006875;29;20363;-71
2022/10/24 08:01:20;;;;;;;7.35;2.35;;;;;;;15.57;81.09;100335.25;5008521;29;20437;-71
2022/10/24 08:03:52;;;;;;;9.07;2.50;;;;;;;15.56;80.91;100329.16;5008316;29;20046;-72
2022/10/24 08:06:28;;;;;;;9.63;2.50;;;;;;;15.58;80.08;100337.81;5008408;29;20035;-71
2022/10/24 08:08:59;;;;;;;10.38;2.58;;;;;;;15.55;81.02;100337.94;5008500;29;20039;-71
2022/10/24 08:11:31;;;;;;;11.07;2.70;;;;;;;15.59;80.80;100339.53;5008664;29;20506;-71
2022/10/24 08:14:03;;;;;;;11.27;2.63;;;;;;;15.68;80.38;100343.53;5007020;29;20076;-70
2022/10/24 08:16:34;;;;;;;13.50;3.47;;;;;;;15.76;81.19;100359.91;5008242;29;20629;-71
2022/10/24 08:19:05;;;;;;;11.47;2.93;;;;;;;15.77;80.31;100356.34;5007078;29;20387;-71
2022/10/24 08:21:37;;;;;;;15.13;3.50;;;;;;;15.79;80.37;100361.53;5009127;29;20464;-71
2022/10/24 08:24:08;;;;;;;11.90;2.70;;;;;;;16.06;79.52;100375.31;5008307;29;20046;-71
2022/10/24 08:26:40;;;;;;;12.57;3.10;;;;;;;16.13;78.48;100412.72;5007300;29;20109;-71
2022/10/24 08:29:13;;;;;;;14.37;3.43;;;;;;;16.09;78.45;100369.06;5008317;29;20542;-70
2022/10/24 08:31:44;;;;;;;12.82;3.70;;;;;;;15.96;78.08;100364.31;5008013;29;20042;-71
2022/10/24 08:34:17;;;;;;;10.77;3.50;;;;;;;15.99;78.34;100372.09;5006799;29;20480;-71
2022/10/24 08:36:49;;;;;;;7.05;2.85;;;;;;;15.90;78.03;100375.09;5008048;29;20027;-71
2022/10/24 08:39:20;;;;;;;8.02;2.63;;;;;;;15.72;79.50;100375.81;5007935;29;20078;-71
2022/10/24 08:41:54;;;;;;;14.40;3.60;;;;;;;15.52;80.21;100366.97;5005820;29;20488;-70
2022/10/24 08:44:28;;;;;;;10.73;3.08;;;;;;;15.44;82.09;100384.78;5007578;29;20027;-71
2022/10/24 08:47:18;;;;;;;10.25;2.47;;;;;;;15.46;81.06;100396.97;5008312;29;20485;-71
2022/10/24 08:50:12;;;;;;;12.15;2.90;;;;;;;15.74;81.13;100387.13;5007627;29;20030;-70
2022/10/24 08:52:46;;;;;;;10.30;2.72;;;;;;;15.90;78.35;100382.13;5006743;29;20503;-71
2022/10/24 08:55:24;;;;;;;11.02;3.60;;;;;;;16.10;78.27;100378.66;5006619;29;20035;-72
2022/10/24 08:57:59;;;;;;;11.68;2.60;;;;;;;16.25;77.06;100377.16;5007116;29;20113;-71
2022/10/24 09:00:40;;;;;;;9.77;2.58;;;;;;;16.31;76.69;100393.53;5008509;29;20062;-72
2022/10/24 09:03:35;;;;;;;7.05;2.45;;;;;;;16.38;76.00;100392.34;5005919;29;20106;-72
2022/10/24 09:06:16;;;;;;;8.48;3.03;;;;;;;16.48;74.55;100398.06;5007316;29;20043;-72
2022/10/24 09:08:57;;;;;;;11.57;3.10;;;;;;;16.69;74.42;100387.50;5008002;29;20049;-71
2022/10/24 09:11:49;;;;;;;11.73;2.38;;;;;;;16.73;73.38;100407.53;5007166;29;20030;-71
2022/10/24 09:14:25;;;;;;;8.90;2.47;;;;;;;16.93;72.86;100401.38;5007337;29;20035;-71
2022/10/24 09:17:16;;;;;;;12.35;3.38;;;;;;;17.20;72.95;100403.69;5005753;29;20498;-71
2022/10/24 09:19:59;;;;;;;13.63;3.95;;;;;;;17.42;71.93;100407.00;5006920;29;20527;-71
2022/10/24 09:22:33;;;;;;;10.07;3.17;;;;;;;17.66;70.39;100410.25;5006757;29;20038;-70
2022/10/24 09:25:07;;;;;;;10.35;3.33;;;;;;;17.53;69.58;100429.34;5006574;29;20034;-70
2022/10/24 09:27:40;;;;;;;12.57;3.38;;;;;;;17.57;69.73;100418.59;5006916;29;20529;-70
2022/10/24 09:30:18;;;;;;;13.85;3.50;;;;;;;17.66;69.78;100405.00;5006806;29;20430;-71
2022/10/24 09:32:51;;;;;;;14.10;3.67;;;;;;;17.57;69.21;100404.56;5007296;29;20039;-70
2022/10/24 09:35:26;;;;;;;12.63;3.10;;;;;;;17.26;69.99;100427.94;5006444;29;20042;-70
2022/10/24 09:38:24;;;;;;;10.77;3.35;;;;;;;17.36;70.70;100417.84;5006671;29;20035;-70
2022/10/24 09:40:59;;;;;;;13.00;4.32;;;;;;;17.00;71.69;100428.28;5006819;29;20117;-71
2022/10/24 09:43:42;;;;;;;13.50;3.67;;;;;;;17.21;71.19;100444.88;5005813;29;20042;-69
2022/10/24 09:46:20;;;;;;;13.20;3.88;;;;;;;17.55;71.50;100438.03;5005537;29;20058;-71
2022/10/24 09:49:10;;;;;;;14.70;3.65;;;;;;;17.58;70.51;100445.81;5005735;29;20042;-70
2022/10/24 09:51:44;;;;;;;10.70;3.35;;;;;;;17.85;68.94;100447.13;5005730;29;20077;-71
2022/10/24 09:54:18;;;;;;;10.18;3.60;;;;;;;18.05;68.48;100450.59;5005667;29;20130;-70
2022/10/24 09:57:12;;;;;;;13.20;4.10;;;;;;;18.24;68.10;100445.28;5006195;29;20408;-70
2022/10/24 09:59:46;;;;;;;12.88;4.45;;;;;;;18.07;66.90;100451.38;5005749;29;20042;-70
2022/10/24 10:02:28;;;;;;;11.70;3.42;;;;;;;17.96;67.37;100458.97;5005547;29;20436;-71
2022/10/24 10:05:02;;;;;;;14.48;4.00;;;;;;;17.86;66.53;100450.63;5005971;29;20043;-70
2022/10/24 10:07:36;;;;;;;16.13;4.38;;;;;;;17.72;67.30;100460.97;5005618;29;20070;-69
2022/10/24 10:10:17;;;;;;;11.85;3.65;;;;;;;17.50;68.78;100462.00;5005548;29;20384;-69
2022/10/24 10:13:03;;;;;;;9.73;3.03;;;;;;;17.28;70.49;100462.97;5006036;29;20099;-70
2022/10/24 10:15:46;;;;;;;14.25;3.90;;;;;;;16.96;71.66;100459.16;5005572;29;20035;-70
2022/10/24 10:18:36;;;;;;;;;;;;;;;17.08;71.34;100482.31;5006128;29;20065;-70
2022/10/24 10:21:07;;;;;;;11.43;3.20;;;;;;;17.46;69.25;100510.47;5005807;29;19917;-69
2022/10/24 10:23:45;;;;;;;12.40;3.07;;;;;;;17.97;67.79;100487.06;5006048;29;20079;-70
2022/10/24 10:26:23;;;;;;;11.00;2.92;;;;;;;18.47;66.27;100477.56;5008993;29;20031;-71
2022/10/24 10:29:04;;;;;;;14.35;4.40;;;;;;;18.93;64.17;100484.00;5009814;29;20045;-71
2022/10/24 10:31:39;;;;;;;11.65;4.13;;;;;;;19.20;63.02;100491.38;5009134;29;20047;-73
2022/10/24 10:34:21;;;;;;;11.27;3.30;;;;;;;18.74;63.69;100493.75;5007789;29;20035;-72
2022/10/24 10:37:01;;;;;;;14.77;4.03;;;;;;;18.35;64.99;100495.72;5003327;29;20157;-71
2022/10/24 10:39:32;;;;;;;10.23;3.78;;;;;;;17.97;65.95;100497.59;5006350;29;20425;-71
2022/10/24 10:42:17;;;;;;;17.03;3.70;;;;;;;17.81;67.33;100500.94;5005664;29;20046;-71
2022/10/24 10:45:13;;;;;;;11.40;3.83;;;;;;;17.54;68.67;100499.59;5005987;29;20065;-71
2022/10/24 10:48:14;;;;;;;11.45;3.78;;;;;;;16.80;74.10;100502.84;5005428;29;20059;-71
2022/10/24 10:51:21;;;;;;;12.98;3.72;;;;;;;16.04;77.09;100514.72;5005514;29;20035;-71
2022/10/24 10:54:09;;;;;;;12.43;3.25;;;;;;;15.85;79.84;100527.72;5004928;29;20082;-71
2022/10/24 10:56:53;;;;;;;8.95;3.00;;;;;;;15.54;82.70;100524.53;5005084;29;20027;-72
2022/10/24 10:59:40;;;;;;;9.63;2.95;;;;;;;15.47;83.23;100526.53;5005056;29;20042;-71
2022/10/24 11:02:27;;;;;;;11.73;3.53;;;;;;;15.37;83.93;100520.75;5004600;29;20034;-71
2022/10/24 11:05:23;;;;;;;11.73;3.13;;;;;;;14.95;88.35;100532.75;5004242;29;20110;-71
2022/10/24 11:08:12;;;;;;;11.30;3.53;;;;;;;14.85;89.08;100526.09;5004864;29;20035;-71
2022/10/24 11:10:52;;;;;;;10.88;2.78;;;;;;;15.15;88.26;100523.31;5005070;29;20039;-72
2022/10/24 11:13:35;;;;;;;11.60;3.08;;;;;;;16.05;86.46;100526.06;5003678;29;20038;-73
2022/10/24 11:16:16;;;;;;;7.88;2.83;;;;;;;17.24;80.38;100529.91;5004823;29;20035;-73
2022/10/24 11:18:50;;;;;;;9.15;2.80;;;;;;;18.62;76.23;100516.38;5004942;29;20042;-72
2022/10/24 11:21:24;;;;;;;9.00;2.67;;;;;;;19.23;72.21;100522.91;5004718;29;20042;-73
2022/10/24 11:24:10;;;;;;;10.35;3.75;;;;;;;19.89;66.80;100534.38;5004397;29;20332;-72
2022/10/24 11:27:08;;;;;;;8.10;2.72;;;;;;;21.06;65.85;100530.28;5005847;29;20035;-72
2022/10/24 11:30:02;;;;;;;10.38;3.30;;;;;;;20.87;64.02;100540.28;5006147;29;20117;-72
2022/10/24 11:32:43;;;;;;;12.25;3.95;;;;;;;19.82;63.71;100551.53;5005247;29;20030;-72
2022/10/24 11:35:23;;;;;;;7.65;2.47;;;;;;;19.11;66.77;100540.28;5004815;29;20039;-73
2022/10/24 11:38:01;;;;;;;11.07;3.28;;;;;;;19.22;65.47;100523.00;5004712;29;20045;-72
2022/10/24 11:40:34;;;;;;;9.27;3.38;;;;;;;19.10;65.01;100540.38;5004861;29;20074;-71
2022/10/24 11:43:18;;;;;;;11.15;3.13;;;;;;;19.71;64.32;100541.50;5005034;29;20070;-72
2022/10/24 11:45:59;;;;;;;10.02;2.95;;;;;;;20.21;61.67;100539.66;5004861;29;20039;-72
2022/10/24 11:48:38;;;;;;;11.07;2.72;;;;;;;21.64;57.99;100538.25;5004169;29;20488;-72
2022/10/24 11:51:27;;;;;;;8.32;2.85;;;;;;;21.89;54.33;100524.25;5004414;29;20054;-71
2022/10/24 11:54:24;;;;;;;8.77;3.17;;;;;;;22.77;51.94;100526.47;5004723;29;20114;-71
2022/10/24 11:57:01;;;;;;;9.70;2.60;;;;;;;22.53;49.23;100521.84;5003885;29;20055;-75
2022/10/24 11:59:32;;;;;;;10.05;2.92;;;;;;;22.63;47.70;100523.88;5005637;29;20035;-72
2022/10/24 12:02:16;;;;;;;9.53;3.47;;;;;;;22.19;47.22;100544.47;5004826;29;20042;-71